sensor_id;sensor_type;location;lat;lon;timestamp;P1;durP1;ratioP1;P2;durP2;ratioP2
4027;SDS011;2028;51.346;12.396;2023-07-31T00:01:48;8.43;;;3.50;;
4027;SDS011;2028;51.346;12.396;2023-07-31T00:04:14;4.40;;;3.40;;
4027;SDS011;2028;51.346;12.396;2023-07-31T00:06:40;6.10;;;3.10;;
4027;SDS011;2028;51.346;12.396;2023-07-31T00:09:06;7.03;;;3.10;;
4027;SDS011;2028;51.346;12.396;2023-07-31T00:11:32;4.73;;;3.17;;
4027;SDS011;2028;51.346;12.396;2023-07-31T00:13:58;6.63;;;3.23;;
4027;SDS011;2028;51.346;12.396;2023-07-31T00:16:24;4.13;;;2.90;;
4027;SDS011;2028;51.346;12.396;2023-07-31T00:18:50;5.93;;;3.27;;
4027;SDS011;2028;51.346;12.396;2023-07-31T00:21:16;6.53;;;3.33;;
4027;SDS011;2028;51.346;12.396;2023-07-31T00:23:42;6.73;;;3.03;;
4027;SDS011;2028;51.346;12.396;2023-07-31T00:26:08;5.13;;;2.90;;
4027;SDS011;2028;51.346;12.396;2023-07-31T00:28:34;5.93;;;3.00;;
4027;SDS011;2028;51.346;12.396;2023-07-31T00:31:00;6.37;;;3.17;;
4027;SDS011;2028;51.346;12.396;2023-07-31T00:33:27;4.10;;;3.20;;
4027;SDS011;2028;51.346;12.396;2023-07-31T00:35:53;4.37;;;2.60;;
4027;SDS011;2028;51.346;12.396;2023-07-31T00:38:19;6.70;;;3.10;;
4027;SDS011;2028;51.346;12.396;2023-07-31T00:40:45;5.20;;;3.00;;
4027;SDS011;2028;51.346;12.396;2023-07-31T00:43:11;4.47;;;3.27;;
4027;SDS011;2028;51.346;12.396;2023-07-31T00:45:37;5.90;;;3.00;;
4027;SDS011;2028;51.346;12.396;2023-07-31T00:48:04;10.80;;;3.17;;
4027;SDS011;2028;51.346;12.396;2023-07-31T00:50:31;4.53;;;3.40;;
4027;SDS011;2028;51.346;12.396;2023-07-31T00:52:58;7.20;;;3.10;;
4027;SDS011;2028;51.346;12.396;2023-07-31T00:55:24;4.67;;;2.80;;
4027;SDS011;2028;51.346;12.396;2023-07-31T00:57:51;3.73;;;3.00;;
4027;SDS011;2028;51.346;12.396;2023-07-31T01:00:20;8.07;;;3.40;;
4027;SDS011;2028;51.346;12.396;2023-07-31T01:02:48;3.73;;;3.20;;
4027;SDS011;2028;51.346;12.396;2023-07-31T01:05:15;4.47;;;2.80;;
4027;SDS011;2028;51.346;12.396;2023-07-31T01:10:30;3.43;;;2.53;;
4027;SDS011;2028;51.346;12.396;2023-07-31T01:13:02;6.73;;;3.17;;
4027;SDS011;2028;51.346;12.396;2023-07-31T01:15:29;2.90;;;2.70;;
4027;SDS011;2028;51.346;12.396;2023-07-31T01:17:55;5.87;;;3.47;;
4027;SDS011;2028;51.346;12.396;2023-07-31T01:20:22;5.87;;;2.90;;
4027;SDS011;2028;51.346;12.396;2023-07-31T01:28:14;5.43;;;2.67;;
4027;SDS011;2028;51.346;12.396;2023-07-31T01:30:45;4.87;;;3.03;;
4027;SDS011;2028;51.346;12.396;2023-07-31T01:33:13;3.27;;;2.70;;
4027;SDS011;2028;51.346;12.396;2023-07-31T01:35:42;6.40;;;3.07;;
4027;SDS011;2028;51.346;12.396;2023-07-31T01:38:10;6.83;;;3.17;;
4027;SDS011;2028;51.346;12.396;2023-07-31T01:40:37;7.63;;;2.90;;
4027;SDS011;2028;51.346;12.396;2023-07-31T01:43:03;4.30;;;3.17;;
4027;SDS011;2028;51.346;12.396;2023-07-31T01:45:28;4.07;;;3.67;;
4027;SDS011;2028;51.346;12.396;2023-07-31T01:47:54;4.37;;;2.83;;
4027;SDS011;2028;51.346;12.396;2023-07-31T01:50:20;7.73;;;3.23;;
4027;SDS011;2028;51.346;12.396;2023-07-31T01:52:47;6.33;;;2.90;;
4027;SDS011;2028;51.346;12.396;2023-07-31T01:55:13;5.33;;;2.93;;
4027;SDS011;2028;51.346;12.396;2023-07-31T01:57:39;4.23;;;3.10;;
4027;SDS011;2028;51.346;12.396;2023-07-31T02:00:05;4.10;;;2.90;;
4027;SDS011;2028;51.346;12.396;2023-07-31T02:02:31;4.23;;;2.93;;
4027;SDS011;2028;51.346;12.396;2023-07-31T02:04:58;6.63;;;3.00;;
4027;SDS011;2028;51.346;12.396;2023-07-31T02:07:24;4.43;;;2.77;;
4027;SDS011;2028;51.346;12.396;2023-07-31T02:09:50;5.97;;;3.10;;
4027;SDS011;2028;51.346;12.396;2023-07-31T02:12:16;3.57;;;2.67;;
4027;SDS011;2028;51.346;12.396;2023-07-31T02:14:42;5.03;;;3.10;;
4027;SDS011;2028;51.346;12.396;2023-07-31T02:17:08;3.90;;;3.03;;
4027;SDS011;2028;51.346;12.396;2023-07-31T02:19:34;5.10;;;2.93;;
4027;SDS011;2028;51.346;12.396;2023-07-31T02:22:00;4.57;;;3.33;;
4027;SDS011;2028;51.346;12.396;2023-07-31T02:24:26;3.47;;;3.00;;
4027;SDS011;2028;51.346;12.396;2023-07-31T02:26:52;3.37;;;2.90;;
4027;SDS011;2028;51.346;12.396;2023-07-31T02:29:18;5.57;;;2.80;;
4027;SDS011;2028;51.346;12.396;2023-07-31T02:31:44;3.37;;;3.00;;
4027;SDS011;2028;51.346;12.396;2023-07-31T02:34:10;4.70;;;3.27;;
4027;SDS011;2028;51.346;12.396;2023-07-31T02:36:36;4.43;;;2.60;;
4027;SDS011;2028;51.346;12.396;2023-07-31T02:39:02;3.03;;;2.73;;
4027;SDS011;2028;51.346;12.396;2023-07-31T02:41:28;5.53;;;3.07;;
4027;SDS011;2028;51.346;12.396;2023-07-31T02:43:54;3.37;;;2.70;;
4027;SDS011;2028;51.346;12.396;2023-07-31T02:46:20;4.30;;;3.43;;
4027;SDS011;2028;51.346;12.396;2023-07-31T02:48:49;5.00;;;3.20;;
4027;SDS011;2028;51.346;12.396;2023-07-31T02:51:16;4.50;;;2.70;;
4027;SDS011;2028;51.346;12.396;2023-07-31T02:53:42;4.90;;;2.83;;
4027;SDS011;2028;51.346;12.396;2023-07-31T02:56:08;4.00;;;2.63;;
4027;SDS011;2028;51.346;12.396;2023-07-31T02:58:34;4.13;;;3.00;;
4027;SDS011;2028;51.346;12.396;2023-07-31T03:01:00;7.00;;;3.30;;
4027;SDS011;2028;51.346;12.396;2023-07-31T03:03:28;5.37;;;3.10;;
4027;SDS011;2028;51.346;12.396;2023-07-31T03:05:54;6.40;;;3.50;;
4027;SDS011;2028;51.346;12.396;2023-07-31T03:08:20;8.20;;;3.63;;
4027;SDS011;2028;51.346;12.396;2023-07-31T03:10:46;4.80;;;3.00;;
4027;SDS011;2028;51.346;12.396;2023-07-31T03:13:12;3.93;;;2.90;;
4027;SDS011;2028;51.346;12.396;2023-07-31T03:15:41;4.37;;;2.87;;
4027;SDS011;2028;51.346;12.396;2023-07-31T03:18:07;4.33;;;3.33;;
4027;SDS011;2028;51.346;12.396;2023-07-31T03:20:33;5.40;;;3.17;;
4027;SDS011;2028;51.346;12.396;2023-07-31T03:22:59;6.33;;;3.27;;
4027;SDS011;2028;51.346;12.396;2023-07-31T03:25:25;4.50;;;3.27;;
4027;SDS011;2028;51.346;12.396;2023-07-31T03:27:51;4.97;;;2.93;;
4027;SDS011;2028;51.346;12.396;2023-07-31T03:30:17;4.20;;;3.17;;
4027;SDS011;2028;51.346;12.396;2023-07-31T03:32:43;5.73;;;3.30;;
4027;SDS011;2028;51.346;12.396;2023-07-31T03:35:09;7.37;;;3.00;;
4027;SDS011;2028;51.346;12.396;2023-07-31T03:37:35;5.80;;;3.13;;
4027;SDS011;2028;51.346;12.396;2023-07-31T03:40:01;5.27;;;3.20;;
4027;SDS011;2028;51.346;12.396;2023-07-31T03:42:28;7.10;;;3.40;;
4027;SDS011;2028;51.346;12.396;2023-07-31T03:44:54;4.80;;;3.40;;
4027;SDS011;2028;51.346;12.396;2023-07-31T03:47:20;5.47;;;3.33;;
4027;SDS011;2028;51.346;12.396;2023-07-31T03:49:46;3.67;;;3.07;;
4027;SDS011;2028;51.346;12.396;2023-07-31T03:52:12;3.87;;;2.93;;
4027;SDS011;2028;51.346;12.396;2023-07-31T03:54:38;9.43;;;3.30;;
4027;SDS011;2028;51.346;12.396;2023-07-31T03:57:04;5.63;;;3.00;;
4027;SDS011;2028;51.346;12.396;2023-07-31T03:59:31;4.47;;;3.20;;
4027;SDS011;2028;51.346;12.396;2023-07-31T04:01:57;4.83;;;3.47;;
4027;SDS011;2028;51.346;12.396;2023-07-31T04:04:23;5.03;;;3.30;;
4027;SDS011;2028;51.346;12.396;2023-07-31T04:06:49;4.83;;;3.53;;
4027;SDS011;2028;51.346;12.396;2023-07-31T04:09:15;4.53;;;3.20;;
4027;SDS011;2028;51.346;12.396;2023-07-31T04:11:41;5.70;;;3.50;;
4027;SDS011;2028;51.346;12.396;2023-07-31T04:14:07;8.07;;;3.63;;
4027;SDS011;2028;51.346;12.396;2023-07-31T04:16:33;4.70;;;3.23;;
4027;SDS011;2028;51.346;12.396;2023-07-31T04:18:59;6.33;;;3.33;;
4027;SDS011;2028;51.346;12.396;2023-07-31T04:21:25;7.57;;;3.47;;
4027;SDS011;2028;51.346;12.396;2023-07-31T04:23:51;6.27;;;3.63;;
4027;SDS011;2028;51.346;12.396;2023-07-31T04:26:21;5.40;;;3.40;;
4027;SDS011;2028;51.346;12.396;2023-07-31T04:28:47;5.60;;;3.67;;
4027;SDS011;2028;51.346;12.396;2023-07-31T04:31:13;5.50;;;3.40;;
4027;SDS011;2028;51.346;12.396;2023-07-31T04:33:39;6.87;;;3.50;;
4027;SDS011;2028;51.346;12.396;2023-07-31T04:36:05;4.90;;;3.20;;
4027;SDS011;2028;51.346;12.396;2023-07-31T04:38:31;7.30;;;3.40;;
4027;SDS011;2028;51.346;12.396;2023-07-31T04:40:57;5.70;;;3.20;;
4027;SDS011;2028;51.346;12.396;2023-07-31T04:43:24;6.00;;;3.43;;
4027;SDS011;2028;51.346;12.396;2023-07-31T04:45:50;4.20;;;3.53;;
4027;SDS011;2028;51.346;12.396;2023-07-31T04:48:15;5.40;;;3.83;;
4027;SDS011;2028;51.346;12.396;2023-07-31T04:50:42;6.43;;;3.60;;
4027;SDS011;2028;51.346;12.396;2023-07-31T04:53:08;5.50;;;3.53;;
4027;SDS011;2028;51.346;12.396;2023-07-31T04:55:34;4.40;;;3.30;;
4027;SDS011;2028;51.346;12.396;2023-07-31T04:58:00;6.80;;;4.00;;
4027;SDS011;2028;51.346;12.396;2023-07-31T05:00:26;5.00;;;3.40;;
4027;SDS011;2028;51.346;12.396;2023-07-31T05:02:52;4.53;;;3.73;;
4027;SDS011;2028;51.346;12.396;2023-07-31T05:05:18;3.67;;;3.30;;
4027;SDS011;2028;51.346;12.396;2023-07-31T05:07:44;6.40;;;3.70;;
4027;SDS011;2028;51.346;12.396;2023-07-31T05:10:10;6.93;;;3.57;;
4027;SDS011;2028;51.346;12.396;2023-07-31T05:12:36;5.67;;;3.93;;
4027;SDS011;2028;51.346;12.396;2023-07-31T05:15:03;6.67;;;4.20;;
4027;SDS011;2028;51.346;12.396;2023-07-31T05:17:29;6.43;;;3.40;;
4027;SDS011;2028;51.346;12.396;2023-07-31T05:19:55;5.50;;;3.80;;
4027;SDS011;2028;51.346;12.396;2023-07-31T05:22:21;7.27;;;3.87;;
4027;SDS011;2028;51.346;12.396;2023-07-31T05:24:47;4.70;;;4.00;;
4027;SDS011;2028;51.346;12.396;2023-07-31T05:27:13;7.73;;;3.77;;
4027;SDS011;2028;51.346;12.396;2023-07-31T05:29:43;6.53;;;3.80;;
4027;SDS011;2028;51.346;12.396;2023-07-31T05:32:10;6.50;;;3.80;;
4027;SDS011;2028;51.346;12.396;2023-07-31T05:34:37;5.03;;;3.70;;
4027;SDS011;2028;51.346;12.396;2023-07-31T05:37:04;6.23;;;3.83;;
4027;SDS011;2028;51.346;12.396;2023-07-31T05:39:31;6.93;;;3.70;;
4027;SDS011;2028;51.346;12.396;2023-07-31T05:41:57;5.17;;;4.07;;
4027;SDS011;2028;51.346;12.396;2023-07-31T05:44:23;6.40;;;3.80;;
4027;SDS011;2028;51.346;12.396;2023-07-31T05:46:49;4.97;;;3.90;;
4027;SDS011;2028;51.346;12.396;2023-07-31T05:49:15;4.63;;;3.50;;
4027;SDS011;2028;51.346;12.396;2023-07-31T05:51:41;5.67;;;3.70;;
4027;SDS011;2028;51.346;12.396;2023-07-31T05:54:07;4.83;;;3.60;;
4027;SDS011;2028;51.346;12.396;2023-07-31T05:56:33;4.90;;;3.70;;
4027;SDS011;2028;51.346;12.396;2023-07-31T05:58:59;5.37;;;4.20;;
4027;SDS011;2028;51.346;12.396;2023-07-31T06:01:25;3.93;;;3.37;;
4027;SDS011;2028;51.346;12.396;2023-07-31T06:03:51;3.83;;;3.20;;
4027;SDS011;2028;51.346;12.396;2023-07-31T06:06:17;6.40;;;3.57;;
4027;SDS011;2028;51.346;12.396;2023-07-31T06:08:43;4.87;;;3.43;;
4027;SDS011;2028;51.346;12.396;2023-07-31T06:11:09;6.37;;;3.93;;
4027;SDS011;2028;51.346;12.396;2023-07-31T06:13:35;5.33;;;4.17;;
4027;SDS011;2028;51.346;12.396;2023-07-31T06:16:01;6.27;;;5.33;;
4027;SDS011;2028;51.346;12.396;2023-07-31T06:18:31;4.23;;;3.70;;
4027;SDS011;2028;51.346;12.396;2023-07-31T06:20:58;4.50;;;3.90;;
4027;SDS011;2028;51.346;12.396;2023-07-31T06:23:24;5.93;;;4.20;;
4027;SDS011;2028;51.346;12.396;2023-07-31T06:25:50;4.47;;;4.00;;
4027;SDS011;2028;51.346;12.396;2023-07-31T06:28:16;4.17;;;3.40;;
4027;SDS011;2028;51.346;12.396;2023-07-31T06:30:42;4.20;;;3.73;;
4027;SDS011;2028;51.346;12.396;2023-07-31T06:33:08;4.03;;;3.63;;
4027;SDS011;2028;51.346;12.396;2023-07-31T06:35:34;8.13;;;3.90;;
4027;SDS011;2028;51.346;12.396;2023-07-31T06:38:00;7.10;;;3.67;;
4027;SDS011;2028;51.346;12.396;2023-07-31T06:40:27;9.87;;;5.10;;
4027;SDS011;2028;51.346;12.396;2023-07-31T06:42:54;5.70;;;3.57;;
4027;SDS011;2028;51.346;12.396;2023-07-31T06:45:20;5.43;;;3.57;;
4027;SDS011;2028;51.346;12.396;2023-07-31T06:47:47;5.10;;;4.00;;
4027;SDS011;2028;51.346;12.396;2023-07-31T06:50:13;4.97;;;4.00;;
4027;SDS011;2028;51.346;12.396;2023-07-31T06:52:39;5.10;;;4.10;;
4027;SDS011;2028;51.346;12.396;2023-07-31T06:55:18;4.83;;;3.63;;
4027;SDS011;2028;51.346;12.396;2023-07-31T06:57:45;4.37;;;3.20;;
4027;SDS011;2028;51.346;12.396;2023-07-31T07:00:12;4.33;;;3.47;;
4027;SDS011;2028;51.346;12.396;2023-07-31T07:02:38;5.50;;;4.00;;
4027;SDS011;2028;51.346;12.396;2023-07-31T07:05:05;7.30;;;3.90;;
4027;SDS011;2028;51.346;12.396;2023-07-31T07:07:32;3.87;;;3.47;;
4027;SDS011;2028;51.346;12.396;2023-07-31T07:09:58;6.77;;;3.70;;
4027;SDS011;2028;51.346;12.396;2023-07-31T07:12:29;5.23;;;4.07;;
4027;SDS011;2028;51.346;12.396;2023-07-31T07:14:56;5.37;;;3.73;;
4027;SDS011;2028;51.346;12.396;2023-07-31T07:17:23;4.73;;;3.90;;
4027;SDS011;2028;51.346;12.396;2023-07-31T07:19:49;6.57;;;3.73;;
4027;SDS011;2028;51.346;12.396;2023-07-31T07:22:16;7.93;;;5.50;;
4027;SDS011;2028;51.346;12.396;2023-07-31T07:24:42;5.70;;;4.77;;
4027;SDS011;2028;51.346;12.396;2023-07-31T07:27:09;5.27;;;4.70;;
4027;SDS011;2028;51.346;12.396;2023-07-31T07:29:35;4.77;;;3.87;;
4027;SDS011;2028;51.346;12.396;2023-07-31T07:32:01;6.97;;;5.20;;
4027;SDS011;2028;51.346;12.396;2023-07-31T07:34:27;6.73;;;4.30;;
4027;SDS011;2028;51.346;12.396;2023-07-31T07:36:54;5.87;;;4.80;;
4027;SDS011;2028;51.346;12.396;2023-07-31T07:39:21;5.07;;;4.10;;
4027;SDS011;2028;51.346;12.396;2023-07-31T07:41:47;5.00;;;3.87;;
4027;SDS011;2028;51.346;12.396;2023-07-31T07:44:13;6.17;;;3.73;;
4027;SDS011;2028;51.346;12.396;2023-07-31T07:46:39;3.93;;;3.63;;
4027;SDS011;2028;51.346;12.396;2023-07-31T07:49:06;5.23;;;3.80;;
4027;SDS011;2028;51.346;12.396;2023-07-31T07:51:32;6.83;;;3.70;;
4027;SDS011;2028;51.346;12.396;2023-07-31T07:53:59;9.63;;;8.73;;
4027;SDS011;2028;51.346;12.396;2023-07-31T07:56:25;6.60;;;5.90;;
4027;SDS011;2028;51.346;12.396;2023-07-31T07:58:52;5.33;;;4.07;;
4027;SDS011;2028;51.346;12.396;2023-07-31T08:01:19;5.50;;;3.83;;
4027;SDS011;2028;51.346;12.396;2023-07-31T08:03:46;7.50;;;3.97;;
4027;SDS011;2028;51.346;12.396;2023-07-31T08:06:12;5.30;;;3.70;;
4027;SDS011;2028;51.346;12.396;2023-07-31T08:08:39;6.37;;;4.00;;
4027;SDS011;2028;51.346;12.396;2023-07-31T08:11:05;5.27;;;3.83;;
4027;SDS011;2028;51.346;12.396;2023-07-31T08:13:31;5.97;;;5.00;;
4027;SDS011;2028;51.346;12.396;2023-07-31T08:15:58;13.70;;;10.07;;
4027;SDS011;2028;51.346;12.396;2023-07-31T08:18:24;6.87;;;4.73;;
4027;SDS011;2028;51.346;12.396;2023-07-31T08:20:50;5.50;;;5.00;;
4027;SDS011;2028;51.346;12.396;2023-07-31T08:23:16;8.80;;;7.50;;
4027;SDS011;2028;51.346;12.396;2023-07-31T08:25:42;9.83;;;6.50;;
4027;SDS011;2028;51.346;12.396;2023-07-31T08:28:08;6.17;;;4.63;;
4027;SDS011;2028;51.346;12.396;2023-07-31T08:30:34;7.77;;;4.37;;
4027;SDS011;2028;51.346;12.396;2023-07-31T08:33:00;8.43;;;6.50;;
4027;SDS011;2028;51.346;12.396;2023-07-31T08:35:26;5.77;;;3.80;;
4027;SDS011;2028;51.346;12.396;2023-07-31T08:37:55;4.77;;;3.47;;
4027;SDS011;2028;51.346;12.396;2023-07-31T08:40:22;6.57;;;3.97;;
4027;SDS011;2028;51.346;12.396;2023-07-31T08:42:48;4.30;;;3.90;;
4027;SDS011;2028;51.346;12.396;2023-07-31T08:45:17;5.47;;;3.73;;
4027;SDS011;2028;51.346;12.396;2023-07-31T08:47:45;5.97;;;4.30;;
4027;SDS011;2028;51.346;12.396;2023-07-31T08:50:14;6.33;;;4.03;;
4027;SDS011;2028;51.346;12.396;2023-07-31T08:52:40;5.27;;;3.43;;
4027;SDS011;2028;51.346;12.396;2023-07-31T08:55:06;4.30;;;3.70;;
4027;SDS011;2028;51.346;12.396;2023-07-31T08:57:34;7.43;;;4.00;;
4027;SDS011;2028;51.346;12.396;2023-07-31T09:00:03;5.97;;;3.57;;
4027;SDS011;2028;51.346;12.396;2023-07-31T09:02:46;7.03;;;3.80;;
4027;SDS011;2028;51.346;12.396;2023-07-31T09:05:19;8.43;;;7.43;;
4027;SDS011;2028;51.346;12.396;2023-07-31T09:07:47;6.03;;;4.83;;
4027;SDS011;2028;51.346;12.396;2023-07-31T09:10:15;5.33;;;3.87;;
4027;SDS011;2028;51.346;12.396;2023-07-31T09:12:41;6.17;;;3.90;;
4027;SDS011;2028;51.346;12.396;2023-07-31T09:15:08;6.17;;;3.90;;
4027;SDS011;2028;51.346;12.396;2023-07-31T09:17:37;5.07;;;4.23;;
4027;SDS011;2028;51.346;12.396;2023-07-31T09:20:16;6.03;;;4.10;;
4027;SDS011;2028;51.346;12.396;2023-07-31T09:22:46;6.17;;;4.20;;
4027;SDS011;2028;51.346;12.396;2023-07-31T09:25:17;9.03;;;7.67;;
4027;SDS011;2028;51.346;12.396;2023-07-31T09:27:52;12.00;;;4.80;;
4027;SDS011;2028;51.346;12.396;2023-07-31T09:30:29;7.80;;;7.00;;
4027;SDS011;2028;51.346;12.396;2023-07-31T09:33:02;5.63;;;4.87;;
4027;SDS011;2028;51.346;12.396;2023-07-31T09:35:32;6.07;;;4.20;;
4027;SDS011;2028;51.346;12.396;2023-07-31T09:40:35;8.10;;;4.73;;
4027;SDS011;2028;51.346;12.396;2023-07-31T09:45:47;10.23;;;8.47;;
4027;SDS011;2028;51.346;12.396;2023-07-31T09:48:15;7.77;;;6.57;;
4027;SDS011;2028;51.346;12.396;2023-07-31T09:50:43;7.60;;;5.53;;
4027;SDS011;2028;51.346;12.396;2023-07-31T09:53:11;5.57;;;4.40;;
4027;SDS011;2028;51.346;12.396;2023-07-31T09:55:37;6.30;;;5.20;;
4027;SDS011;2028;51.346;12.396;2023-07-31T09:58:06;7.00;;;5.00;;
4027;SDS011;2028;51.346;12.396;2023-07-31T10:00:33;5.57;;;4.20;;
4027;SDS011;2028;51.346;12.396;2023-07-31T10:03:00;6.50;;;4.10;;
4027;SDS011;2028;51.346;12.396;2023-07-31T10:05:30;5.53;;;3.90;;
4027;SDS011;2028;51.346;12.396;2023-07-31T10:07:59;8.27;;;4.40;;
4027;SDS011;2028;51.346;12.396;2023-07-31T10:10:26;9.13;;;6.57;;
4027;SDS011;2028;51.346;12.396;2023-07-31T10:12:53;4.97;;;4.03;;
4027;SDS011;2028;51.346;12.396;2023-07-31T10:15:21;8.67;;;4.27;;
4027;SDS011;2028;51.346;12.396;2023-07-31T10:17:48;14.37;;;12.33;;
4027;SDS011;2028;51.346;12.396;2023-07-31T10:20:15;6.97;;;4.80;;
4027;SDS011;2028;51.346;12.396;2023-07-31T10:22:45;5.70;;;5.13;;
4027;SDS011;2028;51.346;12.396;2023-07-31T10:25:12;6.20;;;4.50;;
4027;SDS011;2028;51.346;12.396;2023-07-31T10:27:38;4.67;;;3.93;;
4027;SDS011;2028;51.346;12.396;2023-07-31T10:30:06;7.07;;;4.70;;
4027;SDS011;2028;51.346;12.396;2023-07-31T10:32:33;4.63;;;3.93;;
4027;SDS011;2028;51.346;12.396;2023-07-31T10:35:00;4.33;;;3.93;;
4027;SDS011;2028;51.346;12.396;2023-07-31T10:37:28;9.90;;;6.40;;
4027;SDS011;2028;51.346;12.396;2023-07-31T10:39:55;7.70;;;4.93;;
4027;SDS011;2028;51.346;12.396;2023-07-31T10:42:35;8.63;;;7.70;;
4027;SDS011;2028;51.346;12.396;2023-07-31T10:45:04;6.03;;;4.73;;
4027;SDS011;2028;51.346;12.396;2023-07-31T10:47:45;6.00;;;4.20;;
4027;SDS011;2028;51.346;12.396;2023-07-31T10:50:18;7.17;;;4.20;;
4027;SDS011;2028;51.346;12.396;2023-07-31T10:52:49;7.63;;;5.50;;
4027;SDS011;2028;51.346;12.396;2023-07-31T10:55:32;5.70;;;4.47;;
4027;SDS011;2028;51.346;12.396;2023-07-31T10:58:11;6.10;;;4.80;;
4027;SDS011;2028;51.346;12.396;2023-07-31T11:00:41;7.10;;;6.40;;
4027;SDS011;2028;51.346;12.396;2023-07-31T11:03:18;7.83;;;4.90;;
4027;SDS011;2028;51.346;12.396;2023-07-31T11:05:51;5.13;;;3.80;;
4027;SDS011;2028;51.346;12.396;2023-07-31T11:08:24;10.00;;;6.90;;
4027;SDS011;2028;51.346;12.396;2023-07-31T11:13:30;5.33;;;3.87;;
4027;SDS011;2028;51.346;12.396;2023-07-31T11:16:04;5.90;;;4.67;;
4027;SDS011;2028;51.346;12.396;2023-07-31T11:18:30;11.97;;;4.30;;
4027;SDS011;2028;51.346;12.396;2023-07-31T11:20:56;7.53;;;4.10;;
4027;SDS011;2028;51.346;12.396;2023-07-31T11:23:23;7.30;;;3.90;;
4027;SDS011;2028;51.346;12.396;2023-07-31T11:25:49;7.27;;;4.13;;
4027;SDS011;2028;51.346;12.396;2023-07-31T11:28:16;7.10;;;3.90;;
4027;SDS011;2028;51.346;12.396;2023-07-31T11:30:46;9.50;;;3.83;;
4027;SDS011;2028;51.346;12.396;2023-07-31T11:33:16;7.77;;;4.13;;
4027;SDS011;2028;51.346;12.396;2023-07-31T11:35:46;4.93;;;3.63;;
4027;SDS011;2028;51.346;12.396;2023-07-31T11:40:49;5.87;;;3.90;;
4027;SDS011;2028;51.346;12.396;2023-07-31T11:43:17;4.20;;;3.80;;
4027;SDS011;2028;51.346;12.396;2023-07-31T11:45:47;4.90;;;4.17;;
4027;SDS011;2028;51.346;12.396;2023-07-31T11:50:50;6.33;;;4.40;;
4027;SDS011;2028;51.346;12.396;2023-07-31T11:53:19;4.40;;;4.00;;
4027;SDS011;2028;51.346;12.396;2023-07-31T11:55:47;5.07;;;3.97;;
4027;SDS011;2028;51.346;12.396;2023-07-31T11:58:21;4.30;;;3.83;;
4027;SDS011;2028;51.346;12.396;2023-07-31T12:00:47;6.17;;;3.87;;
4027;SDS011;2028;51.346;12.396;2023-07-31T12:03:14;8.27;;;4.50;;
4027;SDS011;2028;51.346;12.396;2023-07-31T12:05:41;6.57;;;3.83;;
4027;SDS011;2028;51.346;12.396;2023-07-31T12:08:10;6.47;;;4.07;;
4027;SDS011;2028;51.346;12.396;2023-07-31T12:10:37;4.73;;;4.13;;
4027;SDS011;2028;51.346;12.396;2023-07-31T12:13:07;6.03;;;4.33;;
4027;SDS011;2028;51.346;12.396;2023-07-31T12:15:41;5.67;;;4.53;;
4027;SDS011;2028;51.346;12.396;2023-07-31T12:18:10;5.97;;;3.90;;
4027;SDS011;2028;51.346;12.396;2023-07-31T12:20:43;5.33;;;4.40;;
4027;SDS011;2028;51.346;12.396;2023-07-31T12:23:17;5.77;;;4.40;;
4027;SDS011;2028;51.346;12.396;2023-07-31T12:25:44;7.37;;;5.23;;
4027;SDS011;2028;51.346;12.396;2023-07-31T12:28:11;7.27;;;6.03;;
4027;SDS011;2028;51.346;12.396;2023-07-31T12:30:38;6.57;;;4.97;;
4027;SDS011;2028;51.346;12.396;2023-07-31T12:33:06;8.33;;;4.60;;
4027;SDS011;2028;51.346;12.396;2023-07-31T12:35:48;5.07;;;4.37;;
4027;SDS011;2028;51.346;12.396;2023-07-31T12:38:14;4.60;;;4.20;;
4027;SDS011;2028;51.346;12.396;2023-07-31T12:40:41;7.67;;;4.23;;
4027;SDS011;2028;51.346;12.396;2023-07-31T12:43:07;8.53;;;4.57;;
4027;SDS011;2028;51.346;12.396;2023-07-31T12:45:34;6.20;;;4.90;;
4027;SDS011;2028;51.346;12.396;2023-07-31T12:48:01;4.93;;;4.43;;
4027;SDS011;2028;51.346;12.396;2023-07-31T12:50:27;10.13;;;5.90;;
4027;SDS011;2028;51.346;12.396;2023-07-31T12:52:53;5.73;;;4.33;;
4027;SDS011;2028;51.346;12.396;2023-07-31T12:55:21;5.50;;;4.57;;
4027;SDS011;2028;51.346;12.396;2023-07-31T12:57:47;5.63;;;4.33;;
4027;SDS011;2028;51.346;12.396;2023-07-31T13:00:14;7.63;;;4.33;;
4027;SDS011;2028;51.346;12.396;2023-07-31T13:02:40;7.97;;;4.80;;
4027;SDS011;2028;51.346;12.396;2023-07-31T13:05:06;5.83;;;4.30;;
4027;SDS011;2028;51.346;12.396;2023-07-31T13:07:33;4.87;;;4.03;;
4027;SDS011;2028;51.346;12.396;2023-07-31T13:09:59;8.33;;;4.83;;
4027;SDS011;2028;51.346;12.396;2023-07-31T13:12:25;6.90;;;4.50;;
4027;SDS011;2028;51.346;12.396;2023-07-31T13:14:51;5.23;;;4.00;;
4027;SDS011;2028;51.346;12.396;2023-07-31T13:17:17;5.57;;;4.60;;
4027;SDS011;2028;51.346;12.396;2023-07-31T13:19:44;5.40;;;3.93;;
4027;SDS011;2028;51.346;12.396;2023-07-31T13:22:11;5.50;;;4.93;;
4027;SDS011;2028;51.346;12.396;2023-07-31T13:24:36;5.53;;;4.17;;
4027;SDS011;2028;51.346;12.396;2023-07-31T13:27:03;4.43;;;3.93;;
4027;SDS011;2028;51.346;12.396;2023-07-31T13:29:29;7.30;;;3.80;;
4027;SDS011;2028;51.346;12.396;2023-07-31T13:31:56;6.67;;;3.43;;
4027;SDS011;2028;51.346;12.396;2023-07-31T13:34:22;8.90;;;3.77;;
4027;SDS011;2028;51.346;12.396;2023-07-31T13:36:48;4.37;;;3.40;;
4027;SDS011;2028;51.346;12.396;2023-07-31T13:39:14;6.87;;;3.77;;
4027;SDS011;2028;51.346;12.396;2023-07-31T13:41:40;5.73;;;4.00;;
4027;SDS011;2028;51.346;12.396;2023-07-31T13:44:07;5.03;;;3.50;;
4027;SDS011;2028;51.346;12.396;2023-07-31T13:46:32;5.03;;;3.90;;
4027;SDS011;2028;51.346;12.396;2023-07-31T13:48:59;7.63;;;4.13;;
4027;SDS011;2028;51.346;12.396;2023-07-31T13:51:26;5.50;;;3.90;;
4027;SDS011;2028;51.346;12.396;2023-07-31T13:53:53;8.03;;;4.27;;
4027;SDS011;2028;51.346;12.396;2023-07-31T13:56:20;5.77;;;3.60;;
4027;SDS011;2028;51.346;12.396;2023-07-31T13:58:46;6.33;;;4.37;;
4027;SDS011;2028;51.346;12.396;2023-07-31T14:01:12;5.20;;;3.60;;
4027;SDS011;2028;51.346;12.396;2023-07-31T14:03:38;4.67;;;3.47;;
4027;SDS011;2028;51.346;12.396;2023-07-31T14:06:04;25.63;;;20.00;;
4027;SDS011;2028;51.346;12.396;2023-07-31T14:08:30;4.77;;;4.37;;
4027;SDS011;2028;51.346;12.396;2023-07-31T14:10:56;6.50;;;3.50;;
4027;SDS011;2028;51.346;12.396;2023-07-31T14:13:23;4.33;;;3.80;;
4027;SDS011;2028;51.346;12.396;2023-07-31T14:15:49;4.53;;;3.57;;
4027;SDS011;2028;51.346;12.396;2023-07-31T14:18:15;4.33;;;3.90;;
4027;SDS011;2028;51.346;12.396;2023-07-31T14:20:41;5.27;;;3.60;;
4027;SDS011;2028;51.346;12.396;2023-07-31T14:23:07;8.30;;;3.97;;
4027;SDS011;2028;51.346;12.396;2023-07-31T14:25:33;5.13;;;3.73;;
4027;SDS011;2028;51.346;12.396;2023-07-31T14:27:59;6.37;;;3.77;;
4027;SDS011;2028;51.346;12.396;2023-07-31T14:30:25;7.70;;;3.70;;
4027;SDS011;2028;51.346;12.396;2023-07-31T14:32:52;6.03;;;4.73;;
4027;SDS011;2028;51.346;12.396;2023-07-31T14:35:18;9.57;;;5.63;;
4027;SDS011;2028;51.346;12.396;2023-07-31T14:37:44;14.83;;;13.43;;
4027;SDS011;2028;51.346;12.396;2023-07-31T14:40:11;34.50;;;31.40;;
4027;SDS011;2028;51.346;12.396;2023-07-31T14:42:38;22.13;;;20.03;;
4027;SDS011;2028;51.346;12.396;2023-07-31T14:45:05;9.00;;;6.90;;
4027;SDS011;2028;51.346;12.396;2023-07-31T14:47:32;13.83;;;12.30;;
4027;SDS011;2028;51.346;12.396;2023-07-31T14:49:59;28.37;;;25.30;;
4027;SDS011;2028;51.346;12.396;2023-07-31T14:52:25;62.63;;;56.33;;
4027;SDS011;2028;51.346;12.396;2023-07-31T14:54:52;43.20;;;38.93;;
4027;SDS011;2028;51.346;12.396;2023-07-31T14:57:18;14.67;;;12.10;;
4027;SDS011;2028;51.346;12.396;2023-07-31T14:59:45;24.30;;;22.17;;
4027;SDS011;2028;51.346;12.396;2023-07-31T15:02:11;9.67;;;4.50;;
4027;SDS011;2028;51.346;12.396;2023-07-31T15:04:38;4.07;;;3.67;;
4027;SDS011;2028;51.346;12.396;2023-07-31T15:07:04;5.80;;;3.73;;
4027;SDS011;2028;51.346;12.396;2023-07-31T15:09:30;8.20;;;7.43;;
4027;SDS011;2028;51.346;12.396;2023-07-31T15:11:56;7.00;;;3.63;;
4027;SDS011;2028;51.346;12.396;2023-07-31T15:14:23;5.93;;;3.87;;
4027;SDS011;2028;51.346;12.396;2023-07-31T15:16:49;14.13;;;12.67;;
4027;SDS011;2028;51.346;12.396;2023-07-31T15:19:16;5.13;;;3.63;;
4027;SDS011;2028;51.346;12.396;2023-07-31T15:21:42;4.53;;;3.37;;